Time;durP1;ratioP1;P1;durP2;ratioP2;P2;SDS_P1;SDS_P2;PMS_P1;PMS_P2;Temp;Humidity;BMP_temperature;BMP_pressure;BME280_temperature;BME280_humidity;BME280_pressure;Samples;Min_cycle;Max_cycle;Signal;HPM_P1;HPM_P2
2021/10/18 00:01:21;;;;;;;9.88;6.68;;;;;;;6.93;74.35;100976.41;4992308;28;20055;-58
2021/10/18 00:03:50;;;;;;;15.57;7.38;;;;;;;6.84;74.61;100978.88;4992177;28;20428;-57
2021/10/18 00:06:18;;;;;;;7.95;5.85;;;;;;;6.81;74.66;100984.97;4974522;28;20055;-57
2021/10/18 00:08:45;;;;;;;10.15;6.57;;;;;;;6.87;73.67;100977.50;4972964;28;20061;-58
2021/10/18 00:11:12;;;;;;;8.85;6.53;;;;;;;6.89;74.03;100975.31;4973005;28;20481;-58
2021/10/18 00:13:40;;;;;;;9.32;6.53;;;;;;;6.88;74.31;100974.44;4972412;28;20140;-57
2021/10/18 00:16:07;;;;;;;10.00;7.68;;;;;;;6.86;74.35;100959.22;4972785;28;20074;-57
2021/10/18 00:18:34;;;;;;;10.63;7.30;;;;;;;6.74;75.18;100959.53;4977001;28;20046;-57
2021/10/18 00:21:03;;;;;;;10.48;6.68;;;;;;;6.83;74.68;100966.16;4991517;28;20050;-58
2021/10/18 00:23:30;;;;;;;14.30;7.25;;;;;;;6.90;74.42;100976.94;4995164;28;20059;-58
2021/10/18 00:25:58;;;;;;;10.55;7.18;;;;;;;6.93;74.22;100983.84;4995329;28;20589;-58
2021/10/18 00:28:25;;;;;;;10.27;7.55;;;;;;;6.86;74.75;100986.91;4995666;28;20505;-58
2021/10/18 00:30:52;;;;;;;9.20;6.80;;;;;;;6.92;75.05;100985.81;4995340;28;20054;-57
2021/10/18 00:33:20;;;;;;;10.15;6.65;;;;;;;6.90;74.14;100980.53;4995339;28;20417;-57
2021/10/18 00:35:47;;;;;;;9.25;7.57;;;;;;;6.97;73.73;100979.44;4995226;28;20134;-58
2021/10/18 00:38:16;;;;;;;10.88;6.75;;;;;;;6.99;73.71;100980.84;4994946;28;20054;-55
2021/10/18 00:40:43;;;;;;;10.93;7.30;;;;;;;6.87;74.31;100964.50;4995370;28;20481;-58
2021/10/18 00:43:11;;;;;;;10.88;7.13;;;;;;;6.83;74.63;100971.69;4986933;28;20046;-58
2021/10/18 00:45:38;;;;;;;8.70;6.38;;;;;;;6.89;74.53;100978.06;4976294;28;20051;-58
2021/10/18 00:48:05;;;;;;;9.75;6.60;;;;;;;6.94;73.76;100980.81;4988847;28;20054;-57
2021/10/18 00:50:33;;;;;;;9.13;7.47;;;;;;;6.94;73.71;100966.16;4995084;28;20069;-58
2021/10/18 00:53:01;;;;;;;12.57;7.32;;;;;;;6.78;74.96;100962.53;4994589;28;20386;-59
2021/10/18 00:55:30;;;;;;;9.52;6.25;;;;;;;6.80;74.75;100961.16;4995741;28;20146;-58
2021/10/18 00:57:58;;;;;;;9.70;5.90;;;;;;;6.82;74.00;100958.94;4995208;28;20054;-57
2021/10/18 01:00:25;;;;;;;9.80;6.38;;;;;;;6.83;74.04;100955.06;4994894;28;20061;-57
2021/10/18 01:02:53;;;;;;;10.02;6.00;;;;;;;6.81;73.82;100959.25;4980886;28;20050;-57
2021/10/18 01:05:20;;;;;;;8.90;5.70;;;;;;;6.81;74.16;100954.53;4975414;28;20058;-57
2021/10/18 01:07:49;;;;;;;10.07;6.35;;;;;;;6.82;74.22;100958.94;4975364;28;20050;-59
2021/10/18 01:10:17;;;;;;;9.82;6.10;;;;;;;6.82;73.75;100958.13;4975316;28;20055;-58
2021/10/18 01:12:46;;;;;;;11.45;5.95;;;;;;;6.81;73.69;100962.84;4974796;28;20047;-58
2021/10/18 01:15:13;;;;;;;8.97;6.07;;;;;;;6.82;73.63;100963.66;4975366;28;20062;-57
2021/10/18 01:17:40;;;;;;;9.25;6.40;;;;;;;6.80;74.22;100966.69;4988174;28;20172;-58
2021/10/18 01:20:14;;;;;;;8.45;6.32;;;;;;;6.78;74.31;100968.09;4994093;28;20496;-57
2021/10/18 01:22:43;;;;;;;9.13;6.78;;;;;;;6.81;73.61;100967.53;4994092;28;20500;-58
2021/10/18 01:25:10;;;;;;;10.50;6.75;;;;;;;6.81;73.60;100962.84;4992853;28;20390;-58
2021/10/18 01:27:37;;;;;;;8.98;6.50;;;;;;;6.79;73.73;100962.28;4994478;28;20061;-58
2021/10/18 01:30:06;;;;;;;8.40;6.50;;;;;;;6.65;74.34;100959.22;4994201;28;20489;-57
2021/10/18 01:32:33;;;;;;;8.48;5.80;;;;;;;6.53;74.17;100960.59;4994219;28;20065;-57
2021/10/18 01:35:00;;;;;;;10.07;5.95;;;;;;;6.52;74.06;100959.78;4994204;28;20054;-57
2021/10/18 01:37:28;;;;;;;9.13;5.68;;;;;;;6.59;73.72;100956.72;4994363;28;20409;-57
2021/10/18 01:39:56;;;;;;;7.78;5.85;;;;;;;6.57;73.63;100951.47;4993920;28;20050;-58
2021/10/18 01:42:24;;;;;;;10.10;6.32;;;;;;;6.50;73.38;100948.97;4974772;28;20502;-57
2021/10/18 01:44:51;;;;;;;8.05;5.93;;;;;;;6.52;73.33;100964.47;4974047;28;20425;-57
2021/10/18 01:47:18;;;;;;;8.73;5.53;;;;;;;6.57;73.81;100965.28;4974290;28;20076;-57
2021/10/18 01:49:45;;;;;;;8.80;6.18;;;;;;;6.49;74.18;100974.16;4980195;28;20062;-57
2021/10/18 01:52:13;;;;;;;9.13;6.03;;;;;;;6.52;74.49;100968.06;4977307;28;20118;-57
2021/10/18 01:54:40;;;;;;;8.13;6.25;;;;;;;6.58;73.93;100977.22;4993765;28;20050;-58
2021/10/18 01:57:09;;;;;;;9.10;6.10;;;;;;;6.53;74.55;100975.28;4993984;28;20065;-57
2021/10/18 01:59:36;;;;;;;8.90;5.72;;;;;;;6.57;74.45;100975.53;4994073;28;20386;-57
2021/10/18 02:02:04;;;;;;;11.07;6.45;;;;;;;6.59;73.53;100973.34;4993832;28;20527;-58
2021/10/18 02:04:31;;;;;;;9.38;6.45;;;;;;;6.57;74.43;100972.78;4993837;28;20051;-58
2021/10/18 02:06:59;;;;;;;9.27;6.20;;;;;;;6.52;74.36;100972.78;4992644;28;20062;-57
2021/10/18 02:09:26;;;;;;;9.90;6.03;;;;;;;6.47;74.19;100973.63;4974186;28;20062;-58
2021/10/18 02:11:53;;;;;;;7.68;5.55;;;;;;;6.56;74.03;100980.25;4973987;28;20058;-57
2021/10/18 02:14:22;;;;;;;9.43;5.57;;;;;;;6.61;73.90;100979.44;4974813;28;20054;-57
2021/10/18 02:16:49;;;;;;;7.90;4.97;;;;;;;6.57;73.86;100976.38;4974327;28;20058;-59
2021/10/18 02:19:16;;;;;;;9.70;5.80;;;;;;;6.52;73.58;100970.84;4974367;28;20058;-58
2021/10/18 02:21:44;;;;;;;8.38;5.72;;;;;;;6.45;74.35;100976.66;4976975;28;20062;-57
2021/10/18 02:24:11;;;;;;;7.15;5.38;;;;;;;6.37;73.76;100974.41;4992198;28;20042;-57
2021/10/18 02:26:38;;;;;;;6.28;5.05;;;;;;;6.46;74.19;100971.94;4992981;28;20054;-58
2021/10/18 02:29:06;;;;;;;7.88;5.82;;;;;;;6.47;73.62;100968.09;4992898;28;20058;-57
2021/10/18 02:31:34;;;;;;;6.45;5.03;;;;;;;6.46;73.58;100975.53;4993606;28;20493;-57
2021/10/18 02:34:02;;;;;;;8.35;5.32;;;;;;;6.48;73.84;100978.84;4993062;28;20496;-58
2021/10/18 02:36:29;;;;;;;10.50;6.43;;;;;;;6.48;74.04;100978.84;4993467;28;20060;-57
2021/10/18 02:38:57;;;;;;;11.85;6.78;;;;;;;6.57;73.95;100978.31;4993105;28;20058;-56
2021/10/18 02:41:25;;;;;;;11.73;6.88;;;;;;;6.55;74.58;100986.91;4992882;28;20057;-58
2021/10/18 02:43:52;;;;;;;9.15;6.50;;;;;;;6.60;74.90;100977.78;4992296;28;20058;-58
2021/10/18 02:46:19;;;;;;;10.85;6.88;;;;;;;6.68;74.16;100968.94;4993216;28;20062;-57
2021/10/18 02:48:48;;;;;;;9.57;6.38;;;;;;;6.72;74.32;100972.81;4993076;28;20053;-57
2021/10/18 02:51:16;;;;;;;8.25;5.68;;;;;;;6.70;73.75;100959.22;4992760;28;20062;-56
2021/10/18 02:53:43;;;;;;;8.50;5.45;;;;;;;6.71;74.11;100974.72;4991643;28;20054;-57
2021/10/18 02:56:10;;;;;;;8.43;5.45;;;;;;;6.70;73.67;100966.72;4992907;28;20054;-57
2021/10/18 02:58:38;;;;;;;8.00;5.65;;;;;;;6.69;73.43;100968.63;4993319;28;20516;-57
2021/10/18 03:01:06;;;;;;;6.53;5.38;;;;;;;6.69;73.04;100962.28;4993041;28;20054;-57
2021/10/18 03:03:33;;;;;;;6.95;5.53;;;;;;;6.66;73.59;100960.06;4993219;28;20054;-58
2021/10/18 03:06:02;;;;;;;7.00;5.85;;;;;;;6.67;73.08;100959.78;4992346;28;20054;-57
2021/10/18 03:08:29;;;;;;;7.03;5.32;;;;;;;6.63;72.87;100960.59;4976464;28;20062;-57
2021/10/18 03:10:56;;;;;;;8.10;5.55;;;;;;;6.62;73.24;100964.50;4973384;28;20051;-56
2021/10/18 03:13:23;;;;;;;7.60;6.13;;;;;;;6.61;73.09;100948.97;4973748;28;20103;-57
2021/10/18 03:15:51;;;;;;;7.47;5.45;;;;;;;6.61;73.19;100963.63;4973497;28;20504;-57
2021/10/18 03:18:18;;;;;;;9.88;6.68;;;;;;;6.54;73.05;100965.88;4973721;28;20059;-57
2021/10/18 03:20:45;;;;;;;9.43;5.95;;;;;;;6.53;72.72;100963.38;4973500;28;20488;-57
2021/10/18 03:23:14;;;;;;;7.95;5.97;;;;;;;6.46;73.34;100967.22;4988403;28;20054;-56
2021/10/18 03:25:41;;;;;;;7.57;5.82;;;;;;;6.48;73.47;100961.44;4993038;28;20061;-58
2021/10/18 03:28:09;;;;;;;7.70;5.57;;;;;;;6.32;73.72;100963.34;4992501;28;20063;-57
2021/10/18 03:30:36;;;;;;;9.27;5.78;;;;;;;6.40;73.48;100961.97;4992662;28;20050;-57
2021/10/18 03:33:03;;;;;;;8.10;5.63;;;;;;;6.46;73.00;100975.53;4992724;28;20413;-57
2021/10/18 03:35:31;;;;;;;7.22;5.53;;;;;;;6.51;73.88;100974.72;4992721;28;20070;-57
2021/10/18 03:37:58;;;;;;;9.13;6.25;;;;;;;6.57;73.76;100968.06;4991893;28;20058;-56
2021/10/18 03:40:27;;;;;;;7.50;5.15;;;;;;;6.56;73.86;100971.13;4993101;28;20058;-57
2021/10/18 03:42:54;;;;;;;6.82;5.40;;;;;;;6.48;73.39;100965.00;4992322;28;20058;-57
2021/10/18 03:45:22;;;;;;;7.35;5.65;;;;;;;6.47;74.06;100973.63;4992338;28;20062;-57
2021/10/18 03:47:49;;;;;;;7.55;5.43;;;;;;;6.45;74.23;100971.13;4992897;28;20073;-57
2021/10/18 03:50:17;;;;;;;9.38;5.63;;;;;;;6.55;73.39;100986.06;4992604;28;20425;-57
2021/10/18 03:52:44;;;;;;;7.60;5.50;;;;;;;6.58;73.82;100991.06;4991415;28;20126;-57
2021/10/18 03:55:12;;;;;;;6.22;5.00;;;;;;;6.67;74.21;100994.94;4992761;28;20051;-57
2021/10/18 03:57:40;;;;;;;7.65;5.20;;;;;;;6.73;74.07;100995.78;4996587;28;20069;-56
2021/10/18 04:00:10;;;;;;;6.70;5.60;;;;;;;6.71;73.46;100987.75;4996249;28;20066;-57
2021/10/18 04:02:37;;;;;;;6.28;5.07;;;;;;;6.70;73.77;100989.69;4996225;28;20050;-57
2021/10/18 04:05:05;;;;;;;9.25;5.22;;;;;;;6.67;73.57;100984.69;4996431;28;20046;-57
2021/10/18 04:07:32;;;;;;;6.50;5.05;;;;;;;6.66;73.00;100987.75;4987101;28;20062;-57
2021/10/18 04:09:59;;;;;;;8.00;5.85;;;;;;;6.68;73.11;100983.59;4976800;28;20050;-57
2021/10/18 04:12:27;;;;;;;8.48;5.32;;;;;;;6.71;73.20;100985.78;4976665;28;20055;-58
2021/10/18 04:14:55;;;;;;;6.82;5.13;;;;;;;6.71;72.84;100982.22;4976207;28;20047;-58
2021/10/18 04:17:22;;;;;;;8.10;5.30;;;;;;;6.59;72.77;100981.63;4976090;28;20061;-59
2021/10/18 04:19:51;;;;;;;9.15;5.32;;;;;;;6.65;72.45;100989.66;4976634;28;20054;-59
2021/10/18 04:22:18;;;;;;;11.48;7.35;;;;;;;6.64;72.28;100992.72;4979458;28;20420;-59
2021/10/18 04:24:45;;;;;;;10.32;6.38;;;;;;;6.60;73.07;100984.13;4989647;28;20404;-59
2021/10/18 04:27:13;;;;;;;11.63;6.65;;;;;;;6.59;72.49;100978.88;4995488;28;20070;-58
2021/10/18 04:29:40;;;;;;;11.50;7.40;;;;;;;6.56;73.18;100976.66;4995541;28;20496;-59
2021/10/18 04:32:09;;;;;;;12.60;6.63;;;;;;;6.51;73.11;100980.25;4995590;28;20417;-58
2021/10/18 04:34:36;;;;;;;7.15;5.60;;;;;;;6.50;72.90;100984.13;4995386;28;20051;-58
2021/10/18 04:37:04;;;;;;;8.70;5.72;;;;;;;6.53;72.63;100977.19;4995284;28;20065;-59
2021/10/18 04:39:31;;;;;;;7.50;5.93;;;;;;;6.54;71.97;100990.78;4981660;28;20059;-58
2021/10/18 04:41:59;;;;;;;10.73;6.45;;;;;;;6.53;72.41;100989.13;4990962;28;20413;-58
2021/10/18 04:44:26;;;;;;;6.82;5.68;;;;;;;6.47;72.62;100985.50;4995160;28;20058;-58
2021/10/18 04:46:53;;;;;;;8.38;5.97;;;;;;;6.45;72.65;100996.03;4995048;28;20061;-58
2021/10/18 04:49:22;;;;;;;8.00;6.32;;;;;;;6.46;72.44;100994.91;4994582;28;20050;-58
2021/10/18 04:51:50;;;;;;;6.68;5.68;;;;;;;6.41;72.35;100994.91;4993723;28;20066;-58
2021/10/18 04:54:17;;;;;;;8.13;5.70;;;;;;;6.29;72.67;100999.84;4994571;28;20058;-58
2021/10/18 04:56:44;;;;;;;6.68;5.53;;;;;;;6.27;72.96;101004.81;4995262;28;20054;-58
2021/10/18 04:59:11;;;;;;;8.10;5.70;;;;;;;6.27;73.04;101004.81;4994538;28;20133;-58
2021/10/18 05:01:39;;;;;;;7.35;5.75;;;;;;;6.25;72.78;100999.56;4995097;28;20516;-58
2021/10/18 05:04:06;;;;;;;8.70;6.45;;;;;;;6.20;73.19;101007.03;4994423;28;20074;-58
2021/10/18 05:06:35;;;;;;;9.60;6.72;;;;;;;6.21;72.69;101014.22;4993833;28;20046;-58
2021/10/18 05:09:02;;;;;;;9.10;6.03;;;;;;;6.14;73.03;101016.41;4993997;28;20214;-58
2021/10/18 05:11:29;;;;;;;8.60;5.70;;;;;;;6.04;73.15;101012.50;4990223;28;20050;-58
2021/10/18 05:13:56;;;;;;;9.07;6.35;;;;;;;5.97;72.99;101011.91;4979283;28;20054;-58
2021/10/18 05:16:24;;;;;;;9.02;6.65;;;;;;;5.86;73.62;101008.25;4993555;28;20105;-58
2021/10/18 05:18:51;;;;;;;8.55;6.03;;;;;;;5.88;73.39;101010.75;4990441;28;20497;-59
2021/10/18 05:21:18;;;;;;;8.93;6.00;;;;;;;5.90;73.80;101009.38;4981951;28;20046;-58
2021/10/18 05:23:50;;;;;;;7.90;5.65;;;;;;;5.86;73.72;101012.97;4991319;28;20409;-58
2021/10/18 05:26:17;;;;;;;7.68;5.88;;;;;;;5.82;73.73;101011.84;4993914;28;20491;-59
2021/10/18 05:28:44;;;;;;;9.95;6.43;;;;;;;5.67;74.48;101007.88;4993571;28;20050;-58
2021/10/18 05:31:12;;;;;;;8.73;5.93;;;;;;;5.75;74.07;101009.28;4993839;28;20054;-58
2021/10/18 05:33:39;;;;;;;10.13;6.20;;;;;;;5.76;74.20;101013.72;4993567;28;20054;-59
2021/10/18 05:36:06;;;;;;;10.55;6.97;;;;;;;5.80;74.22;101014.03;4988654;28;20042;-58
2021/10/18 05:38:34;;;;;;;8.88;6.60;;;;;;;5.79;74.15;101009.59;4991946;28;20065;-58
2021/10/18 05:41:04;;;;;;;8.20;6.45;;;;;;;5.84;73.90;101004.09;4989819;28;20049;-59
2021/10/18 05:43:31;;;;;;;13.75;6.55;;;;;;;5.81;73.75;101008.22;4984782;28;20061;-57
2021/10/18 05:45:59;;;;;;;11.52;6.30;;;;;;;5.85;73.25;101005.75;4994003;28;20077;-57
2021/10/18 05:48:26;;;;;;;9.48;6.25;;;;;;;5.85;73.98;101014.03;4993698;28;20050;-57
2021/10/18 05:50:53;;;;;;;8.23;6.07;;;;;;;5.86;73.88;101024.84;4977970;28;20058;-57
2021/10/18 05:53:21;;;;;;;14.18;7.35;;;;;;;5.89;74.19;101029.00;4973917;28;20051;-58
2021/10/18 05:55:49;;;;;;;9.82;7.22;;;;;;;5.83;74.34;101022.59;4974618;28;20135;-57
2021/10/18 05:58:18;;;;;;;10.27;6.85;;;;;;;5.85;74.13;101016.81;4974330;28;20050;-57
2021/10/18 06:00:45;;;;;;;9.10;6.95;;;;;;;5.92;74.03;101017.38;4974643;28;20054;-57
2021/10/18 06:03:14;;;;;;;10.48;7.18;;;;;;;5.98;73.16;101024.63;4982895;28;20212;-57
2021/10/18 06:05:44;;;;;;;11.20;8.43;;;;;;;6.00;73.69;101032.66;4974784;28;20058;-58
2021/10/18 06:08:13;;;;;;;10.60;8.05;;;;;;;5.99;73.72;101033.78;4973986;28;20050;-57
2021/10/18 06:10:40;;;;;;;8.35;6.75;;;;;;;6.04;74.13;101031.84;4979672;28;20051;-58
2021/10/18 06:13:08;;;;;;;10.02;6.65;;;;;;;5.96;74.34;101024.06;4990643;28;20497;-58
2021/10/18 06:15:37;;;;;;;10.35;6.47;;;;;;;6.02;74.10;101034.06;4991501;28;20050;-57
2021/10/18 06:18:11;;;;;;;8.63;6.00;;;;;;;6.16;73.49;101050.16;4991776;28;20368;-57
2021/10/18 06:20:40;;;;;;;9.70;5.80;;;;;;;6.21;72.70;101039.09;4983761;28;20058;-58
2021/10/18 06:23:07;;;;;;;8.80;5.85;;;;;;;6.31;72.36;101039.16;4985137;28;20397;-58
2021/10/18 06:25:35;;;;;;;10.20;5.93;;;;;;;6.38;72.62;101034.16;4974801;28;20405;-58
2021/10/18 06:28:03;;;;;;;7.82;5.93;;;;;;;6.40;72.70;101037.50;4975451;28;20055;-58
2021/10/18 06:30:30;;;;;;;9.93;6.28;;;;;;;6.27;72.79;101038.03;4988398;28;20516;-58
2021/10/18 06:33:02;;;;;;;8.57;6.47;;;;;;;6.40;72.87;101033.91;4993114;28;20050;-58
2021/10/18 06:35:30;;;;;;;9.25;6.60;;;;;;;6.44;71.93;101035.03;4992844;28;20054;-57
2021/10/18 06:37:57;;;;;;;9.98;6.88;;;;;;;6.46;72.49;101027.28;4993371;28;20066;-58
2021/10/18 06:40:25;;;;;;;10.75;7.18;;;;;;;6.36;73.09;101028.06;4992564;28;20050;-58
2021/10/18 06:42:52;;;;;;;10.95;7.18;;;;;;;6.45;72.61;101023.69;4978352;28;20051;-58
2021/10/18 06:45:20;;;;;;;8.18;6.50;;;;;;;6.50;73.01;101023.69;4977779;28;20054;-58
2021/10/18 06:47:47;;;;;;;10.18;6.88;;;;;;;6.65;72.62;101031.19;4973875;28;20059;-58
2021/10/18 06:50:17;;;;;;;9.27;6.85;;;;;;;6.82;72.43;101033.69;4986509;28;20066;-57
2021/10/18 06:52:44;;;;;;;11.38;7.10;;;;;;;7.24;72.62;101029.00;4992768;28;20054;-59
2021/10/18 06:55:12;;;;;;;8.45;5.75;;;;;;;8.08;70.14;101035.75;4992631;28;20057;-59
2021/10/18 06:57:40;;;;;;;8.35;5.85;;;;;;;9.03;66.79;101032.94;4992372;28;20061;-59
2021/10/18 07:00:08;;;;;;;11.90;5.30;;;;;;;10.69;62.54;101028.88;4992186;28;20057;-59
2021/10/18 07:02:36;;;;;;;7.13;5.22;;;;;;;12.10;58.50;101039.78;4979949;28;20061;-59
2021/10/18 07:05:04;;;;;;;8.77;5.07;;;;;;;13.19;54.18;101030.59;4975111;28;20051;-59
2021/10/18 07:07:36;;;;;;;6.45;4.70;;;;;;;14.20;51.39;101030.94;4996309;28;20050;-59
2021/10/18 07:10:05;;;;;;;7.70;5.35;;;;;;;15.23;48.56;101025.78;4997483;28;20062;-59
2021/10/18 07:12:34;;;;;;;6.90;5.15;;;;;;;16.12;45.63;101031.59;4988765;28;20080;-60
2021/10/18 07:15:01;;;;;;;;;;;;;;;16.69;42.84;101027.44;4976513;28;20058;-60
2021/10/18 07:17:29;;;;;;;7.38;5.07;;;;;;;17.76;41.66;101032.56;4983294;28;19929;-58
2021/10/18 07:19:58;;;;;;;6.57;4.80;;;;;;;18.81;39.18;101037.63;4987307;28;20046;-58
2021/10/18 07:22:30;;;;;;;8.52;5.53;;;;;;;19.75;37.07;101038.31;4981941;28;20058;-58
2021/10/18 07:24:59;;;;;;;6.30;4.88;;;;;;;20.08;36.23;101026.66;4982918;28;20060;-57
2021/10/18 07:27:26;;;;;;;8.05;5.20;;;;;;;20.53;35.64;101025.28;4985827;28;20072;-58
2021/10/18 07:29:56;;;;;;;6.85;4.80;;;;;;;21.46;34.16;101020.81;4990449;28;20370;-59
2021/10/18 07:32:24;;;;;;;7.50;5.55;;;;;;;22.45;32.08;101017.28;4996222;28;20050;-58
2021/10/18 07:34:51;;;;;;;7.97;5.78;;;;;;;22.27;32.23;101017.81;4995457;28;20500;-59
2021/10/18 07:37:25;;;;;;;10.15;5.97;;;;;;;22.19;32.59;101009.53;4996351;28;20517;-58
2021/10/18 07:39:53;;;;;;;6.75;4.63;;;;;;;22.28;32.77;101010.94;4993853;28;20058;-59
2021/10/18 07:42:21;;;;;;;7.32;4.78;;;;;;;21.95;32.93;101014.44;4995803;28;20050;-58
2021/10/18 07:44:49;;;;;;;5.88;4.43;;;;;;;22.44;32.27;101010.75;4996142;28;20042;-59
2021/10/18 07:47:17;;;;;;;5.22;4.53;;;;;;;22.17;32.40;101012.75;4994857;28;20057;-58
2021/10/18 07:49:44;;;;;;;7.43;4.93;;;;;;;21.78;33.21;101015.75;4991027;28;20484;-58
2021/10/18 07:52:12;;;;;;;8.27;5.47;;;;;;;22.26;32.35;101016.19;4995921;28;20058;-58
2021/10/18 07:54:41;;;;;;;8.50;6.07;;;;;;;23.21;31.03;101013.44;4995144;28;20485;-58
2021/10/18 07:57:09;;;;;;;7.32;6.00;;;;;;;23.29;30.60;101009.50;4995634;28;20061;-58
2021/10/18 07:59:37;;;;;;;10.25;6.38;;;;;;;23.45;30.81;101004.38;4994749;28;20058;-59
2021/10/18 08:02:05;;;;;;;5.90;5.15;;;;;;;24.12;30.31;100999.72;4998156;28;20058;-58
2021/10/18 08:04:32;;;;;;;7.60;5.43;;;;;;;24.84;29.07;101003.03;4994997;28;20058;-59
2021/10/18 08:07:00;;;;;;;10.30;6.03;;;;;;;25.08;28.82;101010.09;4994648;28;20069;-59
2021/10/18 08:09:27;;;;;;;6.88;5.97;;;;;;;25.20;28.66;101009.75;4989904;28;20055;-58
2021/10/18 08:11:55;;;;;;;6.50;5.72;;;;;;;25.63;28.41;101018.41;4994293;28;20054;-58
2021/10/18 08:14:23;;;;;;;7.57;5.30;;;;;;;26.19;27.74;101018.09;4993289;28;20054;-59
2021/10/18 08:16:51;;;;;;;7.50;5.40;;;;;;;27.07;26.70;101024.84;4994166;28;21050;-58
2021/10/18 08:19:19;;;;;;;8.25;4.82;;;;;;;27.24;26.30;101028.06;4994023;28;20059;-59
2021/10/18 08:21:46;;;;;;;6.70;4.57;;;;;;;27.49;26.09;101017.28;4995213;28;20050;-58
2021/10/18 08:24:13;;;;;;;6.78;5.00;;;;;;;26.55;26.99;101015.97;4991819;28;20050;-58
2021/10/18 08:26:41;;;;;;;8.43;5.03;;;;;;;26.74;26.56;101017.59;4994984;28;20500;-58
2021/10/18 08:29:08;;;;;;;8.48;5.45;;;;;;;26.95;26.43;101027.34;4991791;28;20062;-58
2021/10/18 08:31:35;;;;;;;6.97;5.13;;;;;;;27.22;26.06;101024.78;4994577;28;20058;-58
2021/10/18 08:34:04;;;;;;;5.53;5.03;;;;;;;27.13;26.56;101016.63;4984165;28;20051;-58
2021/10/18 08:36:35;;;;;;;6.53;4.93;;;;;;;27.57;25.78;101014.38;4992965;28;20054;-58
2021/10/18 08:41:50;;;;;;;5.90;4.90;;;;;;;28.03;25.66;101013.25;4955060;28;20055;-59
2021/10/18 08:44:18;;;;;;;5.78;5.18;;;;;;;29.07;24.47;101009.31;4978944;28;20058;-58
2021/10/18 08:46:48;;;;;;;6.95;5.28;;;;;;;28.83;25.11;101005.50;4975768;28;20056;-59
2021/10/18 08:49:20;;;;;;;6.35;5.40;;;;;;;30.17;23.26;101011.00;4977427;28;20421;-58
2021/10/18 08:51:48;;;;;;;6.15;5.55;;;;;;;30.39;23.60;101006.53;4987283;28;20055;-59
2021/10/18 08:54:16;;;;;;;8.10;5.57;;;;;;;29.29;24.89;101004.97;4979182;28;20436;-58
2021/10/18 08:56:44;;;;;;;6.78;5.55;;;;;;;29.65;24.25;101009.34;4993208;28;20050;-59
2021/10/18 08:59:11;;;;;;;8.02;6.15;;;;;;;29.75;24.52;101006.31;4993026;28;20433;-58
2021/10/18 09:01:44;;;;;;;6.20;5.53;;;;;;;30.07;24.38;101007.03;4980142;28;20055;-58
2021/10/18 09:04:13;;;;;;;7.35;5.70;;;;;;;30.13;23.55;101005.31;4978883;28;20050;-58
2021/10/18 09:06:49;;;;;;;7.35;6.22;;;;;;;30.32;23.31;101004.59;4993343;28;20497;-59
2021/10/18 09:09:19;;;;;;;7.72;5.63;;;;;;;30.04;23.76;100997.25;4983861;28;20047;-59
2021/10/18 09:11:47;;;;;;;6.85;5.72;;;;;;;29.81;23.49;100995.16;4992317;28;20050;-58
2021/10/18 09:14:15;;;;;;;7.38;5.72;;;;;;;29.86;24.01;100996.72;4983488;28;20524;-58
2021/10/18 09:16:45;;;;;;;7.35;4.57;;;;;;;29.16;23.88;100998.16;4993547;28;20452;-58
2021/10/18 09:19:14;;;;;;;7.70;5.65;;;;;;;29.55;23.84;100994.72;4982022;28;20053;-58
2021/10/18 09:21:42;;;;;;;;;;;;;;;29.15;25.09;100993.66;4990471;28;20054;-58
2021/10/18 09:24:12;;;;;;;7.00;5.40;;;;;;;28.99;25.47;100985.63;4986804;28;19922;-58
2021/10/18 09:26:41;;;;;;;6.95;5.65;;;;;;;28.97;25.33;100990.19;4993336;28;20055;-58
2021/10/18 09:29:10;;;;;;;6.82;5.30;;;;;;;29.00;25.38;100990.16;4991776;28;20409;-58
2021/10/18 09:31:38;;;;;;;;;;;;;;;28.88;24.26;100985.78;4993594;28;20532;-58
2021/10/18 09:34:07;;;;;;;6.10;3.85;;;;;;;28.64;23.62;100989.75;4994357;28;19922;-58
2021/10/18 09:36:35;;;;;;;5.57;3.60;;;;;;;28.28;24.72;100990.09;4992724;28;20046;-58
2021/10/18 09:39:28;;;;;;;7.43;4.53;;;;;;;27.56;24.21;100999.25;4989720;28;20070;-58
2021/10/18 09:42:01;;;;;;;5.32;3.60;;;;;;;27.89;23.96;101000.69;4990597;28;20065;-58
2021/10/18 09:45:21;;;;;;;5.60;3.55;;;;;;;25.88;26.42;101006.22;4993305;28;20051;-58
2021/10/18 10:52:58;;;;;;;4.22;1.90;;;;;;;29.63;20.52;100968.75;4985681;28;20104;-59
2021/10/18 10:55:28;;;;;;;4.13;2.05;;;;;;;28.52;22.25;100979.66;4991817;28;20390;-59
2021/10/18 10:57:58;;;;;;;3.92;2.35;;;;;;;27.24;23.63;100971.66;4981748;28;20049;-59
2021/10/18 11:00:39;;;;;;;3.17;2.17;;;;;;;27.76;23.34;100962.31;4976367;28;20387;-58
2021/10/18 11:03:40;;;;;;;3.78;1.95;;;;;;;27.03;23.79;100971.75;4992027;28;20047;-59
2021/10/18 11:06:12;;;;;;;2.70;2.10;;;;;;;27.90;23.30;100961.41;4987601;28;20050;-59
2021/10/18 11:08:44;;;;;;;3.10;1.90;;;;;;;29.14;21.98;100961.28;4991181;28;20057;-59
2021/10/18 11:11:14;;;;;;;2.78;2.00;;;;;;;28.77;22.45;100956.44;4979635;28;20054;-59
2021/10/18 11:13:51;;;;;;;3.58;2.42;;;;;;;29.26;22.10;100942.69;4987027;28;20061;-60
2021/10/18 11:16:22;;;;;;;3.95;2.63;;;;;;;27.55;23.34;100940.41;4990180;28;20058;-59
2021/10/18 11:18:54;;;;;;;3.47;2.08;;;;;;;27.84;23.90;100932.38;4990933;28;20053;-59
2021/10/18 11:21:23;;;;;;;3.63;1.90;;;;;;;27.24;23.97;100928.75;4986498;28;20057;-59
2021/10/18 11:24:01;;;;;;;4.75;2.20;;;;;;;27.19;23.87;100919.78;4977705;28;20069;-59
2021/10/18 11:26:31;;;;;;;3.13;2.03;;;;;;;27.20;24.19;100924.28;4987288;28;20054;-59
2021/10/18 11:29:00;;;;;;;6.10;2.88;;;;;;;27.07;23.88;100912.50;4973427;28;20528;-59
2021/10/18 11:31:30;;;;;;;3.83;2.10;;;;;;;26.32;25.28;100916.47;4988174;28;20051;-59
2021/10/18 11:34:08;;;;;;;5.90;2.63;;;;;;;26.29;25.50;100938.09;4986439;28;20051;-58
2021/10/18 11:36:37;;;;;;;3.85;2.13;;;;;;;27.20;24.00;100938.56;4990753;28;20077;-59
2021/10/18 11:39:16;;;;;;;3.58;2.42;;;;;;;27.57;23.44;100923.59;4990575;28;20046;-59
2021/10/18 11:42:03;;;;;;;;;;;;;;;27.45;23.46;100927.81;4990109;28;20054;-59
2021/10/18 11:44:53;;;;;;;4.10;2.03;;;;;;;28.45;22.67;100910.91;4973856;28;20284;-59
2021/10/18 11:47:25;;;;;;;5.43;2.10;;;;;;;28.83;22.89;100914.59;4989761;28;20050;-59
2021/10/18 11:50:15;;;;;;;3.83;2.17;;;;;;;28.71;22.54;100900.81;4989989;28;20049;-59
2021/10/18 11:52:46;;;;;;;4.03;2.40;;;;;;;29.25;22.11;100906.63;4975544;28;20050;-59
2021/10/18 11:55:16;;;;;;;4.97;2.50;;;;;;;29.39;21.29;100902.72;4991453;28;20050;-59
2021/10/18 11:57:45;;;;;;;2.63;2.00;;;;;;;29.59;21.59;100907.72;4992193;28;20065;-59
2021/10/18 12:00:18;;;;;;;3.13;2.17;;;;;;;30.22;20.63;100907.88;4987597;28;20054;-59
2021/10/18 12:02:46;;;;;;;3.75;2.35;;;;;;;30.52;20.03;100918.38;4990573;28;20059;-59
2021/10/18 12:05:16;;;;;;;3.10;2.10;;;;;;;31.33;19.35;100901.81;4990688;28;20390;-59
2021/10/18 12:07:46;;;;;;;3.35;2.20;;;;;;;31.80;19.62;100901.50;4990660;28;20412;-59
2021/10/18 12:10:19;;;;;;;2.80;2.08;;;;;;;31.44;19.67;100899.53;4992114;28;20050;-58
2021/10/18 12:13:12;;;;;;;4.00;2.17;;;;;;;30.16;21.62;100895.25;4987829;28;20065;-59
2021/10/18 12:15:49;;;;;;;4.05;2.10;;;;;;;29.81;21.45;100890.97;4980502;28;20442;-59
2021/10/18 12:18:18;;;;;;;3.40;2.13;;;;;;;29.83;21.64;100886.41;4984551;28;20062;-59
2021/10/18 12:20:47;;;;;;;;;;;;;;;28.91;21.88;100887.41;4996257;28;20062;-59
2021/10/18 12:23:24;;;;;;;;;;;;;;;29.90;21.14;100876.84;4988791;28;19922;-59
2021/10/18 12:25:55;;;;;;;3.88;2.50;;;;;;;31.94;18.74;100880.13;4992334;28;19921;-59
2021/10/18 12:28:30;;;;;;;3.60;2.42;;;;;;;31.76;18.92;100886.38;4992923;28;20051;-59
2021/10/18 12:30:59;;;;;;;4.15;2.30;;;;;;;30.81;20.22;100879.56;4983997;28;20828;-59
2021/10/18 12:33:35;;;;;;;4.50;2.60;;;;;;;31.07;19.57;100860.50;4995019;28;20412;-59
2021/10/18 12:36:07;;;;;;;3.38;2.47;;;;;;;33.25;18.09;100852.81;4993518;28;20055;-58
2021/10/18 12:38:36;;;;;;;4.78;2.95;;;;;;;32.77;18.77;100846.88;4984609;28;20489;-59
2021/10/18 12:41:14;;;;;;;2.72;2.53;;;;;;;33.23;17.47;100840.91;4993414;28;20046;-59
2021/10/18 12:43:45;;;;;;;2.58;2.30;;;;;;;32.85;17.72;100842.50;4975681;28;20061;-59
2021/10/18 12:46:23;;;;;;;3.40;2.20;;;;;;;32.34;18.70;100819.34;4992117;28;20050;-59